Terminal Aerodrome Forecast
Issued by NWS

Home | Current Version | Previous Version | Text Only | Print | Product List | Glossary On
Versions: 1 2 3 4 5 6 7 8 9 10 11 12 13 14 15 16 17 18 19 20 21 22 23 24
000
FTUS45 KGJT 012342
TAFVEL
TAF
KVEL 012342Z 0200/0224 13006KT P6SM SCT080 BKN150
     FM020300 29006KT P6SM BKN200
     FM021500 16003KT P6SM BKN250
     FM021900 20006KT P6SM VCTS SCT100CB BKN150=

USA.gov is the U.S. government's official web portal to all federal, state and local government web resources and services.